createdAt,value
2023-01-06T00:04:03.109Z,22.34
2023-01-06T00:09:06.143Z,22.31
2023-01-06T00:14:09.127Z,22.29
2023-01-06T00:19:13.266Z,22.26
2023-01-06T00:24:16.159Z,22.27
2023-01-06T00:29:18.951Z,22.28
2023-01-06T00:34:23.170Z,22.26
2023-01-06T00:39:26.046Z,22.24
2023-01-06T00:44:28.975Z,22.23
2023-01-06T00:49:33.138Z,22.25
2023-01-06T00:54:36.668Z,22.24
2023-01-06T00:59:39.448Z,22.20
2023-01-06T01:04:43.634Z,22.20
2023-01-06T01:09:46.470Z,22.19
2023-01-06T01:14:50.773Z,22.18
2023-01-06T01:19:55.741Z,22.18
2023-01-06T01:24:58.576Z,22.15
2023-01-06T01:30:01.423Z,22.15
2023-01-06T01:35:06.104Z,22.15
2023-01-06T01:40:10.494Z,22.13
2023-01-06T01:45:19.945Z,22.16
2023-01-06T01:50:31.145Z,22.17
2023-01-06T01:55:34.105Z,22.16
2023-01-06T02:00:36.861Z,22.17
2023-01-06T02:05:42.571Z,22.16
2023-01-06T02:10:45.513Z,22.20
2023-01-06T02:15:48.427Z,22.20
2023-01-06T02:21:13.324Z,22.15
2023-01-06T02:26:49.971Z,22.13
2023-01-06T02:32:00.725Z,22.06
2023-01-06T02:37:06.894Z,21.96
2023-01-06T02:42:15.801Z,21.95
2023-01-06T02:47:22.407Z,21.99
2023-01-06T02:52:28.125Z,21.99
2023-01-06T02:57:33.425Z,21.99
2023-01-06T03:02:41.480Z,22.00
2023-01-06T03:07:45.320Z,21.98
2023-01-06T03:12:50.719Z,21.95
2023-01-06T03:17:55.868Z,21.98
2023-01-06T03:22:58.756Z,21.97
2023-01-06T03:28:02.376Z,21.99
2023-01-06T03:33:10.993Z,21.98
2023-01-06T03:38:15.955Z,21.98
2023-01-06T03:43:22.358Z,21.99
2023-01-06T03:48:32.496Z,21.98
2023-01-06T03:53:38.090Z,21.99
2023-01-06T03:58:41.037Z,21.98
2023-01-06T04:03:47.655Z,21.98
2023-01-06T04:08:50.722Z,21.95
2023-01-06T04:13:53.905Z,21.95
2023-01-06T04:18:58.120Z,21.99
2023-01-06T04:24:01.035Z,21.96
2023-01-06T04:29:04.603Z,21.97
2023-01-06T04:34:10.129Z,21.93
2023-01-06T04:39:13.045Z,21.87
2023-01-06T04:44:15.867Z,21.79
2023-01-06T04:49:19.978Z,21.68
2023-01-06T04:54:22.968Z,21.62
2023-01-06T04:59:25.710Z,21.59
2023-01-06T05:04:34.206Z,21.52
2023-01-06T05:09:39.924Z,21.44
2023-01-06T05:14:42.731Z,21.39
2023-01-06T05:19:46.861Z,21.36
2023-01-06T05:24:49.650Z,21.30
2023-01-06T05:29:52.419Z,21.25
2023-01-06T05:34:56.570Z,21.23
2023-01-06T05:39:59.428Z,21.17
2023-01-06T05:45:02.242Z,21.10
2023-01-06T05:50:07.313Z,21.06
2023-01-06T05:55:10.419Z,20.95
2023-01-06T06:00:14.030Z,20.85
2023-01-06T06:05:18.386Z,20.74
2023-01-06T06:10:21.240Z,20.63
2023-01-06T06:15:24.022Z,20.58
2023-01-06T06:20:28.188Z,20.51
2023-01-06T06:25:30.963Z,20.44
2023-01-06T06:30:33.766Z,20.41
2023-01-06T06:35:37.887Z,20.36
2023-01-06T06:40:40.644Z,20.31
2023-01-06T06:45:45.300Z,20.27
2023-01-06T06:50:57.189Z,20.23
2023-01-06T06:56:00.012Z,20.19
2023-01-06T07:01:05.118Z,20.16
2023-01-06T07:06:10.989Z,20.12
2023-01-06T07:11:13.769Z,20.09
2023-01-06T07:16:16.718Z,20.06
2023-01-06T07:21:20.926Z,20.03
2023-01-06T07:26:23.702Z,20.01
2023-01-06T07:31:26.674Z,19.97
2023-01-06T07:36:30.814Z,19.94
2023-01-06T07:41:33.609Z,19.92
2023-01-06T07:46:36.743Z,19.88
2023-01-06T07:51:40.907Z,19.88
2023-01-06T07:56:44.396Z,19.85
2023-01-06T08:01:47.275Z,19.83
2023-01-06T08:06:51.478Z,19.82
2023-01-06T08:11:54.208Z,19.79
2023-01-06T08:16:57.041Z,19.79
2023-01-06T08:22:01.193Z,19.71
2023-01-06T08:27:04.008Z,18.89
2023-01-06T08:32:10.745Z,18.21
2023-01-06T08:37:15.331Z,17.85
2023-01-06T08:42:18.271Z,17.83
2023-01-06T08:47:21.026Z,18.20
2023-01-06T08:52:25.168Z,18.54
2023-01-06T08:57:28.053Z,18.81
2023-01-06T09:02:31.475Z,19.04
2023-01-06T09:07:35.646Z,19.24
2023-01-06T09:12:38.477Z,19.38
2023-01-06T09:17:41.394Z,19.51
2023-01-06T09:22:45.946Z,19.54
2023-01-06T09:27:48.707Z,19.56
2023-01-06T09:32:51.472Z,19.59
2023-01-06T09:37:55.672Z,19.59
2023-01-06T09:43:03.863Z,19.60
2023-01-06T09:48:07.668Z,19.61
2023-01-06T09:53:14.273Z,19.64
2023-01-06T09:58:18.099Z,19.63
2023-01-06T10:03:21.945Z,19.59
2023-01-06T10:08:29.904Z,19.59
2023-01-06T10:13:39.404Z,19.59
2023-01-06T10:18:46.539Z,19.56
2023-01-06T10:24:05.624Z,19.53
2023-01-06T10:29:11.460Z,19.52
2023-01-06T10:34:18.820Z,19.48
2023-01-06T10:39:23.805Z,19.48
2023-01-06T10:44:26.660Z,19.47
2023-01-06T10:49:29.432Z,19.47
2023-01-06T10:54:34.652Z,19.48
2023-01-06T10:59:55.922Z,19.47
2023-01-06T11:05:00.482Z,19.47
2023-01-06T11:10:12.290Z,19.54
2023-01-06T11:15:20.681Z,19.55
2023-01-06T11:20:31.621Z,19.66
2023-01-06T11:25:35.710Z,19.72
2023-01-06T11:30:40.110Z,19.76
2023-01-06T11:35:42.871Z,19.80
2023-01-06T11:40:47.695Z,19.87
2023-01-06T11:45:51.170Z,19.87
2023-01-06T11:50:54.704Z,19.85
2023-01-06T11:56:02.198Z,19.85
2023-01-06T12:01:07.285Z,19.11
2023-01-06T12:06:19.911Z,19.24
2023-01-06T12:11:26.734Z,19.15
2023-01-06T12:16:35.346Z,19.39
2023-01-06T12:21:38.275Z,19.63
2023-01-06T12:26:42.421Z,19.74
2023-01-06T12:31:48.600Z,19.81
2023-01-06T12:36:53.122Z,19.89
2023-01-06T12:41:59.035Z,19.93
2023-01-06T12:47:06.188Z,19.96
2023-01-06T12:52:10.516Z,19.97
2023-01-06T12:57:20.832Z,19.79
2023-01-06T13:02:40.802Z,18.94
2023-01-06T13:07:46.353Z,18.60
2023-01-06T13:12:54.691Z,18.20
2023-01-06T13:18:04.732Z,18.45
2023-01-06T13:23:19.645Z,18.54
2023-01-06T13:28:28.179Z,18.75
2023-01-06T13:33:55.202Z,19.00
2023-01-06T13:38:59.146Z,19.17
2023-01-06T13:44:03.499Z,19.27
2023-01-06T13:49:06.439Z,19.35
2023-01-06T13:54:51.115Z,18.73
2023-01-06T13:59:55.488Z,18.39
2023-01-06T14:04:58.690Z,18.79
2023-01-06T14:10:01.623Z,18.96
2023-01-06T14:15:07.095Z,18.69
2023-01-06T14:20:29.381Z,18.97
2023-01-06T14:25:32.356Z,19.01
2023-01-06T14:30:36.690Z,19.04
2023-01-06T14:35:43.745Z,19.04
2023-01-06T14:40:50.586Z,19.18
2023-01-06T14:45:54.753Z,19.18
2023-01-06T14:50:58.867Z,19.19
2023-01-06T14:56:01.675Z,19.16
2023-01-06T15:01:06.554Z,19.13
2023-01-06T15:06:14.476Z,19.13
2023-01-06T15:11:25.841Z,19.17
2023-01-06T15:16:35.647Z,19.26
2023-01-06T15:21:39.471Z,19.33
2023-01-06T15:26:42.498Z,19.40
2023-01-06T15:31:46.803Z,19.50
2023-01-06T15:36:50.501Z,19.58
2023-01-06T15:41:53.337Z,19.66
2023-01-06T15:46:59.497Z,19.74
2023-01-06T15:52:04.602Z,19.79
2023-01-06T15:57:16.608Z,19.87
2023-01-06T16:02:21.382Z,19.93
2023-01-06T16:07:35.089Z,19.97
2023-01-06T16:12:38.036Z,20.04
2023-01-06T16:17:45.555Z,20.10
2023-01-06T16:22:49.242Z,20.14
2023-01-06T16:27:52.461Z,20.24
2023-01-06T16:32:56.670Z,20.31
2023-01-06T16:37:59.580Z,20.37
2023-01-06T16:43:02.802Z,20.44
2023-01-06T16:48:07.359Z,20.50
2023-01-06T16:53:13.238Z,20.57
2023-01-06T16:58:17.400Z,20.61
2023-01-06T17:03:22.316Z,20.65
2023-01-06T17:08:26.923Z,20.70
2023-01-06T17:13:36.139Z,20.77
2023-01-06T17:18:48.904Z,20.83
2023-01-06T17:23:53.809Z,20.85
2023-01-06T17:28:57.197Z,20.91
2023-01-06T17:34:07.022Z,20.98
2023-01-06T17:39:15.891Z,21.01
2023-01-06T17:44:20.105Z,21.04
2023-01-06T17:49:35.006Z,21.07
2023-01-06T17:54:55.254Z,21.09
2023-01-06T17:59:58.236Z,21.13
2023-01-06T18:05:02.774Z,21.16
2023-01-06T18:10:08.359Z,21.21
2023-01-06T18:15:28.487Z,21.22
2023-01-06T18:20:33.049Z,21.26
2023-01-06T18:25:36.122Z,21.28
2023-01-06T18:30:39.279Z,21.31
2023-01-06T18:35:43.522Z,21.32
2023-01-06T18:40:46.507Z,21.35
2023-01-06T18:45:49.853Z,21.41
2023-01-06T18:50:54.311Z,21.46
2023-01-06T18:55:57.751Z,21.41
2023-01-06T19:01:02.123Z,21.44
2023-01-06T19:06:32.395Z,21.45
2023-01-06T19:11:35.526Z,21.48
2023-01-06T19:16:39.558Z,21.54
2023-01-06T19:21:43.878Z,21.52
2023-01-06T19:26:46.815Z,21.56
2023-01-06T19:31:53.706Z,21.57
2023-01-06T19:36:58.226Z,21.55
2023-01-06T19:42:14.787Z,21.60
2023-01-06T19:47:19.383Z,21.58
2023-01-06T19:52:32.757Z,21.57
2023-01-06T19:57:37.715Z,21.60
2023-01-06T20:02:44.132Z,21.59
2023-01-06T20:07:48.514Z,21.63
2023-01-06T20:12:51.305Z,21.66
2023-01-06T20:17:54.160Z,21.65
2023-01-06T20:22:58.466Z,21.68
2023-01-06T20:28:01.266Z,21.70
2023-01-06T20:33:04.255Z,21.74
2023-01-06T20:38:08.455Z,21.75
2023-01-06T20:43:11.230Z,21.75
2023-01-06T20:48:14.250Z,21.75
2023-01-06T20:53:18.882Z,21.75
2023-01-06T20:58:22.256Z,21.76
2023-01-06T21:03:25.049Z,21.78
2023-01-06T21:08:29.240Z,21.74
2023-01-06T21:13:32.063Z,21.74
2023-01-06T21:18:34.997Z,21.74
2023-01-06T21:23:39.330Z,21.73
2023-01-06T21:28:42.077Z,21.78
2023-01-06T21:33:44.878Z,21.75
2023-01-06T21:38:49.059Z,21.76
2023-01-06T21:43:51.956Z,21.81
2023-01-06T21:48:54.756Z,21.80
2023-01-06T21:53:59.063Z,21.78
2023-01-06T21:59:02.005Z,21.78
2023-01-06T22:04:05.092Z,21.77
2023-01-06T22:09:09.423Z,21.80
2023-01-06T22:14:12.509Z,21.79
2023-01-06T22:19:15.435Z,21.82
2023-01-06T22:24:19.612Z,21.83
2023-01-06T22:29:22.340Z,21.80
2023-01-06T22:34:25.111Z,21.78
2023-01-06T22:39:29.221Z,21.80
2023-01-06T22:44:32.144Z,21.82
2023-01-06T22:49:34.954Z,21.80
2023-01-06T22:54:39.094Z,21.82
2023-01-06T22:59:41.920Z,21.86
2023-01-06T23:04:44.692Z,21.84
2023-01-06T23:09:48.861Z,21.88
2023-01-06T23:14:52.047Z,21.89
2023-01-06T23:19:54.931Z,21.87
2023-01-06T23:24:59.047Z,21.86
2023-01-06T23:30:01.826Z,21.82
2023-01-06T23:35:05.036Z,21.81
2023-01-06T23:40:10.695Z,21.78
2023-01-06T23:45:13.478Z,21.84
2023-01-06T23:50:16.600Z,21.86
2023-01-06T23:55:20.731Z,21.86
